sensor_id;sensor_type;location;lat;lon;timestamp;P1;durP1;ratioP1;P2;durP2;ratioP2
76978;SDS011;65911;47.502;19.148;2023-07-02T00:00:41;11.13;;;7.22;;
76978;SDS011;65911;47.502;19.148;2023-07-02T00:03:43;10.63;;;6.65;;
76978;SDS011;65911;47.502;19.148;2023-07-02T00:06:46;12.85;;;6.68;;
76978;SDS011;65911;47.502;19.148;2023-07-02T00:09:48;11.13;;;7.00;;
76978;SDS011;65911;47.502;19.148;2023-07-02T00:12:50;11.45;;;7.30;;
76978;SDS011;65911;47.502;19.148;2023-07-02T00:15:52;8.97;;;6.30;;
76978;SDS011;65911;47.502;19.148;2023-07-02T00:18:55;12.05;;;6.78;;
76978;SDS011;65911;47.502;19.148;2023-07-02T00:21:57;13.32;;;7.43;;
76978;SDS011;65911;47.502;19.148;2023-07-02T00:25:00;11.30;;;7.00;;
76978;SDS011;65911;47.502;19.148;2023-07-02T00:28:02;11.02;;;7.43;;
76978;SDS011;65911;47.502;19.148;2023-07-02T00:31:05;10.52;;;6.70;;
76978;SDS011;65911;47.502;19.148;2023-07-02T00:34:07;11.25;;;7.22;;
76978;SDS011;65911;47.502;19.148;2023-07-02T00:37:09;10.98;;;6.63;;
76978;SDS011;65911;47.502;19.148;2023-07-02T00:40:12;11.57;;;7.07;;
76978;SDS011;65911;47.502;19.148;2023-07-02T00:43:14;10.48;;;7.25;;
76978;SDS011;65911;47.502;19.148;2023-07-02T00:46:20;9.23;;;6.70;;
76978;SDS011;65911;47.502;19.148;2023-07-02T00:49:23;10.07;;;6.72;;
76978;SDS011;65911;47.502;19.148;2023-07-02T00:52:26;10.18;;;6.65;;
76978;SDS011;65911;47.502;19.148;2023-07-02T00:55:28;11.07;;;6.60;;
76978;SDS011;65911;47.502;19.148;2023-07-02T00:58:30;10.80;;;6.43;;
76978;SDS011;65911;47.502;19.148;2023-07-02T01:01:32;11.18;;;6.75;;
76978;SDS011;65911;47.502;19.148;2023-07-02T01:04:40;10.32;;;6.07;;
76978;SDS011;65911;47.502;19.148;2023-07-02T01:07:43;10.75;;;6.25;;
76978;SDS011;65911;47.502;19.148;2023-07-02T01:10:46;10.68;;;6.65;;
76978;SDS011;65911;47.502;19.148;2023-07-02T01:13:49;10.48;;;6.30;;
76978;SDS011;65911;47.502;19.148;2023-07-02T01:16:53;11.00;;;6.50;;
76978;SDS011;65911;47.502;19.148;2023-07-02T01:19:57;9.93;;;5.97;;
76978;SDS011;65911;47.502;19.148;2023-07-02T01:23:01;9.20;;;5.97;;
76978;SDS011;65911;47.502;19.148;2023-07-02T01:26:04;9.27;;;6.57;;
76978;SDS011;65911;47.502;19.148;2023-07-02T01:29:17;8.95;;;5.80;;
76978;SDS011;65911;47.502;19.148;2023-07-02T01:32:20;9.75;;;6.22;;
76978;SDS011;65911;47.502;19.148;2023-07-02T01:35:25;11.25;;;6.05;;
76978;SDS011;65911;47.502;19.148;2023-07-02T01:38:27;9.23;;;5.57;;
76978;SDS011;65911;47.502;19.148;2023-07-02T01:41:29;8.93;;;5.95;;
76978;SDS011;65911;47.502;19.148;2023-07-02T01:44:31;12.30;;;6.50;;
76978;SDS011;65911;47.502;19.148;2023-07-02T01:47:34;10.07;;;5.77;;
76978;SDS011;65911;47.502;19.148;2023-07-02T01:50:36;8.30;;;5.40;;
76978;SDS011;65911;47.502;19.148;2023-07-02T01:53:39;7.90;;;5.22;;
76978;SDS011;65911;47.502;19.148;2023-07-02T01:56:41;8.93;;;6.30;;
76978;SDS011;65911;47.502;19.148;2023-07-02T01:59:43;12.27;;;6.00;;
76978;SDS011;65911;47.502;19.148;2023-07-02T02:02:45;7.50;;;5.22;;
76978;SDS011;65911;47.502;19.148;2023-07-02T02:05:48;10.50;;;5.65;;
76978;SDS011;65911;47.502;19.148;2023-07-02T02:08:52;9.52;;;6.15;;
76978;SDS011;65911;47.502;19.148;2023-07-02T02:11:54;7.93;;;4.95;;
76978;SDS011;65911;47.502;19.148;2023-07-02T02:14:56;10.02;;;5.38;;
76978;SDS011;65911;47.502;19.148;2023-07-02T02:17:59;7.80;;;4.90;;
76978;SDS011;65911;47.502;19.148;2023-07-02T02:21:01;9.52;;;5.80;;
76978;SDS011;65911;47.502;19.148;2023-07-02T02:24:05;7.53;;;5.30;;
76978;SDS011;65911;47.502;19.148;2023-07-02T02:27:07;9.93;;;5.60;;
76978;SDS011;65911;47.502;19.148;2023-07-02T02:30:10;7.53;;;4.78;;
76978;SDS011;65911;47.502;19.148;2023-07-02T02:33:13;8.13;;;5.30;;
76978;SDS011;65911;47.502;19.148;2023-07-02T02:36:15;9.90;;;5.53;;
76978;SDS011;65911;47.502;19.148;2023-07-02T02:39:19;7.57;;;5.38;;
76978;SDS011;65911;47.502;19.148;2023-07-02T02:42:21;7.22;;;5.15;;
76978;SDS011;65911;47.502;19.148;2023-07-02T02:45:23;8.80;;;5.07;;
76978;SDS011;65911;47.502;19.148;2023-07-02T02:48:25;7.53;;;4.77;;
76978;SDS011;65911;47.502;19.148;2023-07-02T02:51:42;9.68;;;5.47;;
76978;SDS011;65911;47.502;19.148;2023-07-02T02:54:45;5.97;;;4.20;;
76978;SDS011;65911;47.502;19.148;2023-07-02T02:57:47;7.77;;;4.50;;
76978;SDS011;65911;47.502;19.148;2023-07-02T03:00:50;9.88;;;4.70;;
76978;SDS011;65911;47.502;19.148;2023-07-02T03:03:53;8.45;;;5.43;;
76978;SDS011;65911;47.502;19.148;2023-07-02T03:06:55;7.40;;;4.88;;
76978;SDS011;65911;47.502;19.148;2023-07-02T03:09:58;8.00;;;5.05;;
76978;SDS011;65911;47.502;19.148;2023-07-02T03:13:01;7.38;;;4.38;;
76978;SDS011;65911;47.502;19.148;2023-07-02T03:16:04;7.60;;;4.50;;
76978;SDS011;65911;47.502;19.148;2023-07-02T03:19:07;7.47;;;4.73;;
76978;SDS011;65911;47.502;19.148;2023-07-02T03:22:09;7.55;;;4.28;;
76978;SDS011;65911;47.502;19.148;2023-07-02T03:25:12;7.32;;;4.20;;
76978;SDS011;65911;47.502;19.148;2023-07-02T03:28:14;6.90;;;4.33;;
76978;SDS011;65911;47.502;19.148;2023-07-02T03:31:16;7.32;;;4.15;;
76978;SDS011;65911;47.502;19.148;2023-07-02T03:34:19;6.63;;;4.43;;
76978;SDS011;65911;47.502;19.148;2023-07-02T03:37:21;8.23;;;4.00;;
76978;SDS011;65911;47.502;19.148;2023-07-02T03:40:23;6.30;;;3.75;;
76978;SDS011;65911;47.502;19.148;2023-07-02T03:43:26;5.85;;;3.72;;
76978;SDS011;65911;47.502;19.148;2023-07-02T03:46:28;7.18;;;4.30;;
76978;SDS011;65911;47.502;19.148;2023-07-02T03:49:30;5.93;;;3.80;;
76978;SDS011;65911;47.502;19.148;2023-07-02T03:52:32;5.95;;;3.97;;
76978;SDS011;65911;47.502;19.148;2023-07-02T03:55:35;7.30;;;3.90;;
76978;SDS011;65911;47.502;19.148;2023-07-02T03:58:37;7.13;;;4.03;;
76978;SDS011;65911;47.502;19.148;2023-07-02T04:01:39;6.10;;;3.70;;
76978;SDS011;65911;47.502;19.148;2023-07-02T04:04:41;6.15;;;3.80;;
76978;SDS011;65911;47.502;19.148;2023-07-02T04:07:43;6.30;;;3.50;;
76978;SDS011;65911;47.502;19.148;2023-07-02T04:10:46;7.60;;;4.13;;
76978;SDS011;65911;47.502;19.148;2023-07-02T04:13:49;6.65;;;3.95;;
76978;SDS011;65911;47.502;19.148;2023-07-02T04:16:51;7.07;;;3.72;;
76978;SDS011;65911;47.502;19.148;2023-07-02T04:19:54;8.03;;;3.83;;
76978;SDS011;65911;47.502;19.148;2023-07-02T04:22:56;6.35;;;3.70;;
76978;SDS011;65911;47.502;19.148;2023-07-02T04:25:59;5.07;;;3.70;;
76978;SDS011;65911;47.502;19.148;2023-07-02T04:29:21;6.93;;;3.77;;
76978;SDS011;65911;47.502;19.148;2023-07-02T04:32:23;6.35;;;3.38;;
76978;SDS011;65911;47.502;19.148;2023-07-02T04:35:26;7.22;;;3.70;;
76978;SDS011;65911;47.502;19.148;2023-07-02T04:38:28;5.28;;;3.80;;
76978;SDS011;65911;47.502;19.148;2023-07-02T04:41:30;5.28;;;3.80;;
76978;SDS011;65911;47.502;19.148;2023-07-02T04:44:34;6.15;;;3.55;;
76978;SDS011;65911;47.502;19.148;2023-07-02T04:47:36;6.65;;;3.78;;
76978;SDS011;65911;47.502;19.148;2023-07-02T04:50:39;7.07;;;3.30;;
76978;SDS011;65911;47.502;19.148;2023-07-02T04:53:41;5.70;;;3.70;;
76978;SDS011;65911;47.502;19.148;2023-07-02T04:56:43;5.40;;;3.60;;
76978;SDS011;65911;47.502;19.148;2023-07-02T04:59:45;5.87;;;3.47;;
76978;SDS011;65911;47.502;19.148;2023-07-02T05:02:48;5.82;;;4.00;;
76978;SDS011;65911;47.502;19.148;2023-07-02T05:05:50;6.18;;;3.17;;
76978;SDS011;65911;47.502;19.148;2023-07-02T05:08:53;5.70;;;3.60;;
76978;SDS011;65911;47.502;19.148;2023-07-02T05:11:55;4.90;;;3.38;;
76978;SDS011;65911;47.502;19.148;2023-07-02T05:14:57;4.70;;;3.00;;
76978;SDS011;65911;47.502;19.148;2023-07-02T05:17:59;5.88;;;3.42;;
76978;SDS011;65911;47.502;19.148;2023-07-02T05:21:02;5.63;;;3.53;;
76978;SDS011;65911;47.502;19.148;2023-07-02T05:24:04;6.63;;;3.30;;
76978;SDS011;65911;47.502;19.148;2023-07-02T05:27:07;6.38;;;3.47;;
76978;SDS011;65911;47.502;19.148;2023-07-02T05:30:09;7.10;;;2.90;;
76978;SDS011;65911;47.502;19.148;2023-07-02T05:33:12;6.32;;;3.00;;
76978;SDS011;65911;47.502;19.148;2023-07-02T05:36:16;7.05;;;2.97;;
76978;SDS011;65911;47.502;19.148;2023-07-02T05:39:21;6.05;;;3.33;;
76978;SDS011;65911;47.502;19.148;2023-07-02T05:42:24;6.53;;;3.20;;
76978;SDS011;65911;47.502;19.148;2023-07-02T05:45:26;8.38;;;3.15;;
76978;SDS011;65911;47.502;19.148;2023-07-02T05:48:29;5.38;;;3.03;;
76978;SDS011;65911;47.502;19.148;2023-07-02T05:51:31;5.53;;;3.30;;
76978;SDS011;65911;47.502;19.148;2023-07-02T05:54:34;5.68;;;3.20;;
76978;SDS011;65911;47.502;19.148;2023-07-02T05:57:36;6.40;;;2.97;;
76978;SDS011;65911;47.502;19.148;2023-07-02T06:00:41;4.80;;;3.23;;
76978;SDS011;65911;47.502;19.148;2023-07-02T06:03:48;5.25;;;3.30;;
76978;SDS011;65911;47.502;19.148;2023-07-02T06:06:51;5.18;;;2.88;;
76978;SDS011;65911;47.502;19.148;2023-07-02T06:09:54;5.53;;;3.00;;
76978;SDS011;65911;47.502;19.148;2023-07-02T06:12:56;4.93;;;3.40;;
76978;SDS011;65911;47.502;19.148;2023-07-02T06:15:58;5.82;;;3.10;;
76978;SDS011;65911;47.502;19.148;2023-07-02T06:19:00;7.88;;;3.42;;
76978;SDS011;65911;47.502;19.148;2023-07-02T06:22:03;5.60;;;2.60;;
76978;SDS011;65911;47.502;19.148;2023-07-02T06:25:05;6.55;;;3.08;;
76978;SDS011;65911;47.502;19.148;2023-07-02T06:28:09;5.05;;;3.15;;
76978;SDS011;65911;47.502;19.148;2023-07-02T06:31:11;5.13;;;3.20;;
76978;SDS011;65911;47.502;19.148;2023-07-02T06:34:15;7.15;;;2.90;;
76978;SDS011;65911;47.502;19.148;2023-07-02T06:37:17;6.00;;;3.20;;
76978;SDS011;65911;47.502;19.148;2023-07-02T06:40:20;4.88;;;2.92;;
76978;SDS011;65911;47.502;19.148;2023-07-02T06:43:22;5.07;;;2.83;;
76978;SDS011;65911;47.502;19.148;2023-07-02T06:46:25;5.38;;;3.20;;
76978;SDS011;65911;47.502;19.148;2023-07-02T06:49:27;5.97;;;2.70;;
76978;SDS011;65911;47.502;19.148;2023-07-02T06:52:29;4.87;;;2.80;;
76978;SDS011;65911;47.502;19.148;2023-07-02T06:55:31;4.53;;;2.50;;
76978;SDS011;65911;47.502;19.148;2023-07-02T06:58:34;4.65;;;2.58;;
76978;SDS011;65911;47.502;19.148;2023-07-02T07:01:36;7.93;;;3.10;;
76978;SDS011;65911;47.502;19.148;2023-07-02T07:04:38;4.82;;;2.85;;
76978;SDS011;65911;47.502;19.148;2023-07-02T07:07:40;5.75;;;2.88;;
76978;SDS011;65911;47.502;19.148;2023-07-02T07:10:43;4.32;;;3.30;;
76978;SDS011;65911;47.502;19.148;2023-07-02T07:13:47;3.63;;;2.87;;
76978;SDS011;65911;47.502;19.148;2023-07-02T07:16:49;4.38;;;2.92;;
76978;SDS011;65911;47.502;19.148;2023-07-02T07:19:52;5.80;;;3.00;;
76978;SDS011;65911;47.502;19.148;2023-07-02T07:22:54;4.68;;;3.20;;
76978;SDS011;65911;47.502;19.148;2023-07-02T07:25:57;7.57;;;3.28;;
76978;SDS011;65911;47.502;19.148;2023-07-02T07:28:59;5.03;;;3.10;;
76978;SDS011;65911;47.502;19.148;2023-07-02T07:32:01;6.15;;;3.03;;
76978;SDS011;65911;47.502;19.148;2023-07-02T07:35:03;5.33;;;2.60;;
76978;SDS011;65911;47.502;19.148;2023-07-02T07:38:06;5.47;;;2.40;;
76978;SDS011;65911;47.502;19.148;2023-07-02T07:41:09;4.13;;;2.88;;
76978;SDS011;65911;47.502;19.148;2023-07-02T07:44:11;6.20;;;3.10;;
76978;SDS011;65911;47.502;19.148;2023-07-02T07:47:13;5.20;;;2.40;;
76978;SDS011;65911;47.502;19.148;2023-07-02T07:50:16;3.20;;;2.47;;
76978;SDS011;65911;47.502;19.148;2023-07-02T07:53:18;6.15;;;2.70;;
76978;SDS011;65911;47.502;19.148;2023-07-02T07:56:20;3.65;;;2.40;;
76978;SDS011;65911;47.502;19.148;2023-07-02T07:59:22;5.72;;;2.75;;
76978;SDS011;65911;47.502;19.148;2023-07-02T08:02:25;3.95;;;2.58;;
76978;SDS011;65911;47.502;19.148;2023-07-02T08:05:27;3.33;;;2.37;;
76978;SDS011;65911;47.502;19.148;2023-07-02T08:08:29;3.42;;;2.25;;
76978;SDS011;65911;47.502;19.148;2023-07-02T08:11:32;4.20;;;2.38;;
76978;SDS011;65911;47.502;19.148;2023-07-02T08:14:34;3.77;;;2.40;;
76978;SDS011;65911;47.502;19.148;2023-07-02T08:17:39;4.45;;;2.70;;
76978;SDS011;65911;47.502;19.148;2023-07-02T08:20:41;3.17;;;2.05;;
76978;SDS011;65911;47.502;19.148;2023-07-02T08:23:43;4.13;;;2.50;;
76978;SDS011;65911;47.502;19.148;2023-07-02T08:26:46;4.15;;;2.63;;
76978;SDS011;65911;47.502;19.148;2023-07-02T08:29:49;3.90;;;2.58;;
76978;SDS011;65911;47.502;19.148;2023-07-02T08:32:51;5.13;;;2.50;;
76978;SDS011;65911;47.502;19.148;2023-07-02T08:35:56;4.53;;;2.33;;
76978;SDS011;65911;47.502;19.148;2023-07-02T08:38:59;3.30;;;2.30;;
76978;SDS011;65911;47.502;19.148;2023-07-02T08:42:01;5.43;;;2.42;;
76978;SDS011;65911;47.502;19.148;2023-07-02T08:45:04;5.03;;;2.60;;
76978;SDS011;65911;47.502;19.148;2023-07-02T08:48:07;4.50;;;3.00;;
76978;SDS011;65911;47.502;19.148;2023-07-02T08:51:10;4.30;;;2.33;;
76978;SDS011;65911;47.502;19.148;2023-07-02T08:54:12;2.80;;;2.10;;
76978;SDS011;65911;47.502;19.148;2023-07-02T08:57:16;3.27;;;2.67;;
76978;SDS011;65911;47.502;19.148;2023-07-02T09:00:18;3.55;;;1.85;;
76978;SDS011;65911;47.502;19.148;2023-07-02T09:03:21;2.92;;;2.20;;
76978;SDS011;65911;47.502;19.148;2023-07-02T09:06:23;4.13;;;2.13;;
76978;SDS011;65911;47.502;19.148;2023-07-02T09:09:26;3.63;;;2.00;;
76978;SDS011;65911;47.502;19.148;2023-07-02T09:12:29;2.35;;;2.00;;
76978;SDS011;65911;47.502;19.148;2023-07-02T09:15:38;4.07;;;2.10;;
76978;SDS011;65911;47.502;19.148;2023-07-02T09:18:41;4.43;;;2.00;;
76978;SDS011;65911;47.502;19.148;2023-07-02T09:21:47;5.10;;;2.37;;
76978;SDS011;65911;47.502;19.148;2023-07-02T09:24:54;5.32;;;2.60;;
76978;SDS011;65911;47.502;19.148;2023-07-02T09:27:57;6.68;;;2.88;;
76978;SDS011;65911;47.502;19.148;2023-07-02T09:30:59;2.97;;;2.20;;
76978;SDS011;65911;47.502;19.148;2023-07-02T09:34:01;6.90;;;2.30;;
76978;SDS011;65911;47.502;19.148;2023-07-02T09:37:05;4.07;;;2.38;;
76978;SDS011;65911;47.502;19.148;2023-07-02T09:40:07;4.82;;;2.80;;
76978;SDS011;65911;47.502;19.148;2023-07-02T09:43:11;5.38;;;2.70;;
76978;SDS011;65911;47.502;19.148;2023-07-02T09:46:13;3.42;;;2.40;;
76978;SDS011;65911;47.502;19.148;2023-07-02T09:49:16;3.63;;;2.67;;
76978;SDS011;65911;47.502;19.148;2023-07-02T09:52:19;4.13;;;2.80;;
76978;SDS011;65911;47.502;19.148;2023-07-02T09:55:22;5.00;;;2.80;;
76978;SDS011;65911;47.502;19.148;2023-07-02T09:58:24;6.10;;;2.63;;
76978;SDS011;65911;47.502;19.148;2023-07-02T10:01:26;4.55;;;2.63;;
76978;SDS011;65911;47.502;19.148;2023-07-02T10:04:38;4.85;;;2.78;;
76978;SDS011;65911;47.502;19.148;2023-07-02T10:07:45;4.80;;;3.10;;
76978;SDS011;65911;47.502;19.148;2023-07-02T10:10:47;4.68;;;2.80;;
76978;SDS011;65911;47.502;19.148;2023-07-02T10:13:57;5.40;;;2.60;;
76978;SDS011;65911;47.502;19.148;2023-07-02T10:17:00;3.90;;;2.70;;
76978;SDS011;65911;47.502;19.148;2023-07-02T10:20:06;4.43;;;2.42;;
76978;SDS011;65911;47.502;19.148;2023-07-02T10:23:18;4.03;;;2.80;;
76978;SDS011;65911;47.502;19.148;2023-07-02T10:26:20;6.22;;;2.65;;
76978;SDS011;65911;47.502;19.148;2023-07-02T10:29:25;4.43;;;3.00;;
76978;SDS011;65911;47.502;19.148;2023-07-02T10:32:29;4.38;;;2.80;;
76978;SDS011;65911;47.502;19.148;2023-07-02T10:35:32;4.80;;;2.60;;
76978;SDS011;65911;47.502;19.148;2023-07-02T10:38:36;4.60;;;2.75;;
76978;SDS011;65911;47.502;19.148;2023-07-02T10:41:38;4.03;;;2.55;;
76978;SDS011;65911;47.502;19.148;2023-07-02T10:44:47;3.88;;;2.63;;
76978;SDS011;65911;47.502;19.148;2023-07-02T10:47:51;4.30;;;2.22;;
76978;SDS011;65911;47.502;19.148;2023-07-02T10:50:54;3.50;;;2.47;;
76978;SDS011;65911;47.502;19.148;2023-07-02T10:53:57;3.45;;;2.40;;
76978;SDS011;65911;47.502;19.148;2023-07-02T10:57:00;4.05;;;2.72;;
76978;SDS011;65911;47.502;19.148;2023-07-02T11:00:03;9.77;;;2.65;;
76978;SDS011;65911;47.502;19.148;2023-07-02T11:03:19;3.97;;;2.10;;
76978;SDS011;65911;47.502;19.148;2023-07-02T11:06:23;5.00;;;2.33;;
76978;SDS011;65911;47.502;19.148;2023-07-02T11:09:26;5.95;;;2.10;;
76978;SDS011;65911;47.502;19.148;2023-07-02T11:12:29;4.47;;;2.43;;
76978;SDS011;65911;47.502;19.148;2023-07-02T11:15:35;4.13;;;2.40;;
76978;SDS011;65911;47.502;19.148;2023-07-02T11:18:37;5.13;;;2.38;;
76978;SDS011;65911;47.502;19.148;2023-07-02T11:21:49;3.20;;;2.40;;
76978;SDS011;65911;47.502;19.148;2023-07-02T11:25:13;2.75;;;2.28;;
76978;SDS011;65911;47.502;19.148;2023-07-02T11:28:19;3.67;;;2.22;;
76978;SDS011;65911;47.502;19.148;2023-07-02T11:31:26;5.18;;;2.20;;
76978;SDS011;65911;47.502;19.148;2023-07-02T11:34:32;6.13;;;2.17;;
76978;SDS011;65911;47.502;19.148;2023-07-02T11:37:34;5.68;;;2.72;;
76978;SDS011;65911;47.502;19.148;2023-07-02T11:40:36;4.03;;;2.50;;
76978;SDS011;65911;47.502;19.148;2023-07-02T11:43:39;3.92;;;2.05;;
76978;SDS011;65911;47.502;19.148;2023-07-02T11:46:41;6.00;;;2.40;;
76978;SDS011;65911;47.502;19.148;2023-07-02T11:49:43;3.28;;;2.20;;
76978;SDS011;65911;47.502;19.148;2023-07-02T11:52:45;5.18;;;2.22;;
76978;SDS011;65911;47.502;19.148;2023-07-02T11:55:47;3.25;;;2.22;;
76978;SDS011;65911;47.502;19.148;2023-07-02T11:58:51;2.95;;;1.90;;
76978;SDS011;65911;47.502;19.148;2023-07-02T12:01:53;4.68;;;2.30;;
76978;SDS011;65911;47.502;19.148;2023-07-02T12:04:56;3.65;;;2.05;;
76978;SDS011;65911;47.502;19.148;2023-07-02T12:07:58;4.57;;;2.43;;
76978;SDS011;65911;47.502;19.148;2023-07-02T12:11:00;4.13;;;1.95;;
76978;SDS011;65911;47.502;19.148;2023-07-02T12:14:02;2.90;;;2.03;;
76978;SDS011;65911;47.502;19.148;2023-07-02T12:17:05;2.85;;;1.67;;
76978;SDS011;65911;47.502;19.148;2023-07-02T12:20:07;2.80;;;1.80;;
76978;SDS011;65911;47.502;19.148;2023-07-02T12:23:10;6.55;;;2.03;;
76978;SDS011;65911;47.502;19.148;2023-07-02T12:26:13;4.63;;;1.80;;
76978;SDS011;65911;47.502;19.148;2023-07-02T12:29:15;2.95;;;2.15;;
76978;SDS011;65911;47.502;19.148;2023-07-02T12:32:17;3.93;;;2.07;;
76978;SDS011;65911;47.502;19.148;2023-07-02T12:35:19;2.95;;;1.48;;
76978;SDS011;65911;47.502;19.148;2023-07-02T12:38:22;2.40;;;1.60;;
76978;SDS011;65911;47.502;19.148;2023-07-02T12:41:24;3.03;;;1.65;;
76978;SDS011;65911;47.502;19.148;2023-07-02T12:44:26;5.00;;;1.90;;
76978;SDS011;65911;47.502;19.148;2023-07-02T12:47:29;3.85;;;1.60;;
76978;SDS011;65911;47.502;19.148;2023-07-02T12:50:31;1.95;;;1.52;;
76978;SDS011;65911;47.502;19.148;2023-07-02T12:53:33;2.65;;;1.80;;
76978;SDS011;65911;47.502;19.148;2023-07-02T12:56:35;4.40;;;1.67;;
76978;SDS011;65911;47.502;19.148;2023-07-02T12:59:38;5.32;;;1.90;;
76978;SDS011;65911;47.502;19.148;2023-07-02T13:02:40;2.35;;;1.60;;
76978;SDS011;65911;47.502;19.148;2023-07-02T13:05:59;2.30;;;1.40;;
76978;SDS011;65911;47.502;19.148;2023-07-02T13:09:01;3.15;;;1.40;;
76978;SDS011;65911;47.502;19.148;2023-07-02T13:12:04;3.38;;;1.30;;
76978;SDS011;65911;47.502;19.148;2023-07-02T13:15:07;4.72;;;1.38;;
76978;SDS011;65911;47.502;19.148;2023-07-02T13:18:10;2.87;;;1.30;;
76978;SDS011;65911;47.502;19.148;2023-07-02T13:21:12;1.73;;;1.10;;
76978;SDS011;65911;47.502;19.148;2023-07-02T13:24:32;3.45;;;1.08;;
76978;SDS011;65911;47.502;19.148;2023-07-02T13:27:36;1.27;;;0.85;;
76978;SDS011;65911;47.502;19.148;2023-07-02T13:30:39;1.07;;;0.80;;
76978;SDS011;65911;47.502;19.148;2023-07-02T13:33:42;0.93;;;0.68;;
76978;SDS011;65911;47.502;19.148;2023-07-02T13:36:44;0.90;;;0.50;;
76978;SDS011;65911;47.502;19.148;2023-07-02T13:39:46;0.53;;;0.50;;
76978;SDS011;65911;47.502;19.148;2023-07-02T13:42:49;1.75;;;0.70;;
76978;SDS011;65911;47.502;19.148;2023-07-02T13:45:52;1.42;;;0.70;;
76978;SDS011;65911;47.502;19.148;2023-07-02T13:48:54;1.52;;;0.55;;
76978;SDS011;65911;47.502;19.148;2023-07-02T13:51:56;4.70;;;0.57;;
76978;SDS011;65911;47.502;19.148;2023-07-02T13:54:58;1.73;;;0.57;;
76978;SDS011;65911;47.502;19.148;2023-07-02T13:58:01;2.00;;;0.50;;
76978;SDS011;65911;47.502;19.148;2023-07-02T14:01:03;1.70;;;0.65;;
76978;SDS011;65911;47.502;19.148;2023-07-02T14:04:05;2.63;;;0.57;;
76978;SDS011;65911;47.502;19.148;2023-07-02T14:07:08;1.30;;;0.50;;
76978;SDS011;65911;47.502;19.148;2023-07-02T14:10:10;1.08;;;0.60;;
76978;SDS011;65911;47.502;19.148;2023-07-02T14:13:14;0.82;;;0.70;;
76978;SDS011;65911;47.502;19.148;2023-07-02T14:16:16;0.85;;;0.55;;
76978;SDS011;65911;47.502;19.148;2023-07-02T14:19:18;1.90;;;0.40;;
76978;SDS011;65911;47.502;19.148;2023-07-02T14:22:21;1.10;;;0.70;;
76978;SDS011;65911;47.502;19.148;2023-07-02T14:25:23;1.77;;;0.70;;
76978;SDS011;65911;47.502;19.148;2023-07-02T14:28:42;2.78;;;0.88;;
76978;SDS011;65911;47.502;19.148;2023-07-02T14:31:44;3.30;;;0.97;;
76978;SDS011;65911;47.502;19.148;2023-07-02T14:34:47;1.67;;;0.50;;
76978;SDS011;65911;47.502;19.148;2023-07-02T14:37:49;1.23;;;0.63;;
76978;SDS011;65911;47.502;19.148;2023-07-02T14:40:52;1.17;;;0.85;;
76978;SDS011;65911;47.502;19.148;2023-07-02T14:43:55;1.40;;;0.80;;
76978;SDS011;65911;47.502;19.148;2023-07-02T14:46:58;1.67;;;0.77;;
76978;SDS011;65911;47.502;19.148;2023-07-02T14:50:00;2.05;;;0.55;;
76978;SDS011;65911;47.502;19.148;2023-07-02T14:53:03;1.40;;;0.80;;
76978;SDS011;65911;47.502;19.148;2023-07-02T14:56:05;1.25;;;0.90;;
76978;SDS011;65911;47.502;19.148;2023-07-02T14:59:23;4.50;;;1.00;;
76978;SDS011;65911;47.502;19.148;2023-07-02T15:02:25;1.00;;;0.60;;
76978;SDS011;65911;47.502;19.148;2023-07-02T15:05:27;1.40;;;0.63;;
76978;SDS011;65911;47.502;19.148;2023-07-02T15:08:30;1.85;;;0.82;;
76978;SDS011;65911;47.502;19.148;2023-07-02T15:11:32;1.03;;;0.73;;
76978;SDS011;65911;47.502;19.148;2023-07-02T15:14:34;1.98;;;0.57;;
76978;SDS011;65911;47.502;19.148;2023-07-02T15:17:36;2.47;;;0.80;;
76978;SDS011;65911;47.502;19.148;2023-07-02T15:20:39;1.33;;;0.70;;
76978;SDS011;65911;47.502;19.148;2023-07-02T15:23:42;2.42;;;0.90;;
76978;SDS011;65911;47.502;19.148;2023-07-02T15:26:44;0.80;;;0.70;;
76978;SDS011;65911;47.502;19.148;2023-07-02T15:29:46;2.58;;;0.80;;
76978;SDS011;65911;47.502;19.148;2023-07-02T15:32:48;1.55;;;0.90;;
76978;SDS011;65911;47.502;19.148;2023-07-02T15:35:51;2.33;;;0.98;;
76978;SDS011;65911;47.502;19.148;2023-07-02T15:38:53;1.87;;;0.57;;
76978;SDS011;65911;47.502;19.148;2023-07-02T15:41:55;2.70;;;0.88;;
76978;SDS011;65911;47.502;19.148;2023-07-02T15:44:58;2.05;;;0.60;;
76978;SDS011;65911;47.502;19.148;2023-07-02T15:48:00;2.70;;;0.88;;
76978;SDS011;65911;47.502;19.148;2023-07-02T15:51:03;1.53;;;0.83;;
76978;SDS011;65911;47.502;19.148;2023-07-02T15:54:10;2.88;;;0.80;;
76978;SDS011;65911;47.502;19.148;2023-07-02T15:57:12;2.38;;;0.90;;
76978;SDS011;65911;47.502;19.148;2023-07-02T16:00:14;1.50;;;0.80;;
76978;SDS011;65911;47.502;19.148;2023-07-02T16:03:17;1.10;;;0.60;;
76978;SDS011;65911;47.502;19.148;2023-07-02T16:06:24;1.77;;;0.80;;
76978;SDS011;65911;47.502;19.148;2023-07-02T16:09:33;1.17;;;0.60;;
76978;SDS011;65911;47.502;19.148;2023-07-02T16:12:36;1.98;;;0.85;;
76978;SDS011;65911;47.502;19.148;2023-07-02T16:15:39;0.90;;;0.80;;
76978;SDS011;65911;47.502;19.148;2023-07-02T16:18:41;1.47;;;0.60;;
76978;SDS011;65911;47.502;19.148;2023-07-02T16:21:43;1.08;;;0.60;;
76978;SDS011;65911;47.502;19.148;2023-07-02T16:24:46;1.13;;;0.50;;
76978;SDS011;65911;47.502;19.148;2023-07-02T16:27:49;0.75;;;0.73;;
76978;SDS011;65911;47.502;19.148;2023-07-02T16:30:51;2.80;;;0.90;;
76978;SDS011;65911;47.502;19.148;2023-07-02T16:33:53;2.47;;;0.70;;
76978;SDS011;65911;47.502;19.148;2023-07-02T16:36:56;2.50;;;0.95;;
76978;SDS011;65911;47.502;19.148;2023-07-02T16:39:59;2.15;;;0.98;;
76978;SDS011;65911;47.502;19.148;2023-07-02T16:43:02;1.73;;;1.05;;
76978;SDS011;65911;47.502;19.148;2023-07-02T16:46:05;2.73;;;1.10;;
76978;SDS011;65911;47.502;19.148;2023-07-02T16:49:07;1.30;;;1.20;;
76978;SDS011;65911;47.502;19.148;2023-07-02T16:52:10;2.40;;;1.13;;
76978;SDS011;65911;47.502;19.148;2023-07-02T16:55:12;1.80;;;1.00;;
76978;SDS011;65911;47.502;19.148;2023-07-02T16:58:15;2.80;;;1.00;;
76978;SDS011;65911;47.502;19.148;2023-07-02T17:01:17;2.33;;;1.17;;
76978;SDS011;65911;47.502;19.148;2023-07-02T17:04:20;3.70;;;0.82;;
76978;SDS011;65911;47.502;19.148;2023-07-02T17:07:23;1.80;;;0.60;;
76978;SDS011;65911;47.502;19.148;2023-07-02T17:10:25;1.92;;;0.90;;
76978;SDS011;65911;47.502;19.148;2023-07-02T17:13:28;1.65;;;1.00;;
76978;SDS011;65911;47.502;19.148;2023-07-02T17:16:30;1.40;;;0.82;;
76978;SDS011;65911;47.502;19.148;2023-07-02T17:19:34;1.27;;;0.77;;
76978;SDS011;65911;47.502;19.148;2023-07-02T17:22:40;1.43;;;0.77;;
76978;SDS011;65911;47.502;19.148;2023-07-02T17:25:43;1.15;;;0.63;;
76978;SDS011;65911;47.502;19.148;2023-07-02T17:28:45;1.67;;;0.60;;
76978;SDS011;65911;47.502;19.148;2023-07-02T17:31:49;1.38;;;0.68;;
76978;SDS011;65911;47.502;19.148;2023-07-02T17:34:52;1.47;;;1.07;;
76978;SDS011;65911;47.502;19.148;2023-07-02T17:37:54;1.73;;;0.90;;
76978;SDS011;65911;47.502;19.148;2023-07-02T17:40:56;3.67;;;0.80;;
76978;SDS011;65911;47.502;19.148;2023-07-02T17:43:59;0.93;;;0.70;;
76978;SDS011;65911;47.502;19.148;2023-07-02T17:47:02;1.20;;;1.03;;
76978;SDS011;65911;47.502;19.148;2023-07-02T17:50:07;3.40;;;0.98;;
76978;SDS011;65911;47.502;19.148;2023-07-02T17:53:10;1.73;;;0.70;;
76978;SDS011;65911;47.502;19.148;2023-07-02T17:56:12;2.83;;;1.00;;
76978;SDS011;65911;47.502;19.148;2023-07-02T17:59:15;2.43;;;1.20;;
76978;SDS011;65911;47.502;19.148;2023-07-02T18:02:18;2.33;;;0.77;;
76978;SDS011;65911;47.502;19.148;2023-07-02T18:05:20;1.60;;;1.15;;